Time;durP1;ratioP1;P1;durP2;ratioP2;P2;SDS_P1;SDS_P2;PMS_P1;PMS_P2;Temp;Humidity;BMP_temperature;BMP_pressure;BME280_temperature;BME280_humidity;BME280_pressure;Samples;Min_cycle;Max_cycle;Signal;HPM_P1;HPM_P2
2022/05/24 00:01:15;;;;;;;17.38;11.70;;;12.80;99.90;;;;;;5057545;28;20037;-54
2022/05/24 00:03:40;;;;;;;20.83;13.63;;;12.70;99.90;;;;;;5058162;28;20040;-55
2022/05/24 00:06:06;;;;;;;21.58;14.10;;;12.80;99.90;;;;;;5039171;28;20037;-55
2022/05/24 00:08:32;;;;;;;20.95;14.30;;;12.80;99.90;;;;;;5050003;28;20045;-55
2022/05/24 00:10:58;;;;;;;17.48;12.82;;;12.80;99.90;;;;;;5040082;28;20072;-55
2022/05/24 00:13:24;;;;;;;20.30;14.23;;;12.80;99.90;;;;;;5038382;28;20045;-56
2022/05/24 00:15:50;;;;;;;20.58;12.88;;;12.90;99.90;;;;;;5038997;28;20674;-55
2022/05/24 00:18:22;;;;;;;18.38;12.18;;;12.80;99.90;;;;;;5057267;28;20045;-56
2022/05/24 00:20:51;;;;;;;18.77;12.32;;;12.90;99.90;;;;;;5053740;28;20124;-56
2022/05/24 00:23:18;;;;;;;17.23;10.93;;;12.90;99.90;;;;;;5056967;28;20045;-54
2022/05/24 00:25:47;;;;;;;16.60;10.82;;;12.80;99.90;;;;;;5042221;28;20208;-55
2022/05/24 00:28:15;;;;;;;16.45;10.75;;;12.70;99.90;;;;;;5036999;28;20037;-55
2022/05/24 00:30:42;;;;;;;15.77;10.23;;;12.80;99.90;;;;;;5044204;28;20120;-56
2022/05/24 00:33:08;;;;;;;18.20;11.07;;;12.80;99.90;;;;;;5061303;28;20091;-56
2022/05/24 00:35:34;;;;;;;14.77;9.77;;;12.80;99.90;;;;;;5061200;28;20041;-55
2022/05/24 00:38:00;;;;;;;13.57;9.70;;;12.80;99.90;;;;;;5060500;28;20079;-55
2022/05/24 00:40:44;;;;;;;16.30;10.13;;;12.90;99.90;;;;;;5040994;28;20069;-55
2022/05/24 00:43:33;;;;;;;13.10;8.65;;;12.80;99.90;;;;;;5046755;28;20100;-56
2022/05/24 00:46:03;;;;;;;14.45;9.32;;;12.80;99.90;;;;;;5041099;28;20041;-56
2022/05/24 00:48:58;;;;;;;13.98;8.35;;;12.80;99.90;;;;;;5051437;28;20046;-55
2022/05/24 00:51:47;;;;;;;11.55;8.02;;;12.70;99.90;;;;;;5057720;28;20040;-56
2022/05/24 00:54:14;;;;;;;13.15;7.93;;;12.70;99.90;;;;;;5042432;28;20079;-56
2022/05/24 00:57:01;;;;;;;11.77;7.47;;;12.80;99.90;;;;;;5060842;28;20044;-55
2022/05/24 00:59:45;;;;;;;11.30;8.05;;;12.70;99.90;;;;;;5040887;28;20046;-55
2022/05/24 01:02:11;;;;;;;14.25;8.27;;;12.60;99.90;;;;;;5040008;28;20045;-56
2022/05/24 01:04:37;;;;;;;13.43;8.23;;;12.60;99.90;;;;;;5041278;28;20049;-56
2022/05/24 01:07:03;;;;;;;12.90;7.50;;;12.60;99.90;;;;;;5034622;28;20531;-56
2022/05/24 01:09:38;;;;;;;12.65;7.05;;;12.50;99.90;;;;;;5024600;28;20034;-56
2022/05/24 01:12:10;;;;;;;12.68;7.40;;;12.50;99.90;;;;;;5035076;28;20056;-55
2022/05/24 01:14:36;;;;;;;;;;;12.60;99.90;;;;;;5003269;28;20502;-56
2022/05/24 01:17:02;;;;;;;14.48;7.50;;;12.50;99.90;;;;;;5020833;28;19922;-55
2022/05/24 01:19:35;;;;;;;11.00;6.70;;;12.50;99.90;;;;;;5022819;28;20041;-57
2022/05/24 01:22:24;;;;;;;12.60;6.75;;;12.40;99.90;;;;;;5040553;28;20053;-57
2022/05/24 01:25:07;;;;;;;11.68;7.25;;;12.30;99.90;;;;;;5039581;28;20044;-56
2022/05/24 01:27:33;;;;;;;12.77;7.03;;;12.30;99.90;;;;;;5020190;28;20042;-56
2022/05/24 01:29:59;;;;;;;12.00;6.95;;;12.30;99.90;;;;;;5024696;28;20077;-55
2022/05/24 01:37:55;;;;;;;12.80;8.02;;;12.20;99.90;;;;;;5040248;28;20060;-55
2022/05/24 01:40:21;;;;;;;11.95;8.05;;;12.20;99.90;;;;;;5039739;28;20068;-55
2022/05/24 01:42:47;;;;;;;12.07;7.60;;;12.30;99.90;;;;;;5037161;28;20056;-55
2022/05/24 01:45:48;;;;;;;14.23;8.88;;;12.30;99.90;;;;;;5020727;28;20068;-56
2022/05/24 01:48:18;;;;;;;11.82;8.00;;;12.20;99.90;;;;;;5027250;28;20599;-55
2022/05/24 01:50:45;;;;;;;16.17;9.27;;;12.20;99.90;;;;;;5039527;28;20053;-55
2022/05/24 01:53:16;;;;;;;18.70;9.65;;;12.20;99.90;;;;;;5023872;28;20069;-55
2022/05/24 01:55:50;;;;;;;12.98;9.07;;;12.20;99.90;;;;;;5029634;28;20048;-56
2022/05/24 01:58:18;;;;;;;13.95;8.65;;;12.20;99.90;;;;;;5038292;28;20049;-56
2022/05/24 02:00:48;;;;;;;12.15;7.80;;;12.20;99.90;;;;;;5059717;28;20079;-56
2022/05/24 02:03:14;;;;;;;15.48;10.00;;;12.10;99.90;;;;;;5059646;28;20037;-56
2022/05/24 02:05:41;;;;;;;17.92;10.23;;;12.20;99.90;;;;;;5041448;28;20068;-56
2022/05/24 02:08:10;;;;;;;15.40;11.00;;;12.10;99.90;;;;;;5059771;28;20041;-56
2022/05/24 02:10:59;;;;;;;16.27;10.18;;;12.10;99.90;;;;;;5058961;28;20033;-56
2022/05/24 02:13:31;;;;;;;13.38;9.13;;;12.20;99.90;;;;;;5056222;28;20033;-55
2022/05/24 02:16:03;;;;;;;12.50;9.50;;;12.20;99.90;;;;;;5040590;28;20104;-56
2022/05/24 02:18:30;;;;;;;14.43;9.75;;;12.20;99.90;;;;;;5058728;28;20045;-56
2022/05/24 02:20:56;;;;;;;15.38;10.60;;;12.30;99.90;;;;;;5046896;28;20442;-56
2022/05/24 02:23:22;;;;;;;15.32;10.75;;;12.30;99.90;;;;;;5045957;28;20084;-55
2022/05/24 02:25:55;;;;;;;15.35;9.65;;;12.20;99.90;;;;;;5049969;28;20052;-55
2022/05/24 02:28:29;;;;;;;13.48;9.50;;;12.30;99.90;;;;;;5050364;28;20049;-55
2022/05/24 02:30:58;;;;;;;22.02;11.80;;;12.30;99.90;;;;;;5041698;28;20041;-55
2022/05/24 02:33:24;;;;;;;16.70;10.32;;;12.30;99.90;;;;;;5039502;28;20116;-55
2022/05/24 02:35:51;;;;;;;15.40;11.15;;;12.30;99.90;;;;;;5039027;28;20041;-56
2022/05/24 02:38:17;;;;;;;16.10;11.20;;;12.30;99.90;;;;;;5049428;28;20041;-55
2022/05/24 02:43:27;;;;;;;14.98;10.48;;;12.40;99.90;;;;;;5059321;28;20090;-55
2022/05/24 02:45:53;;;;;;;16.35;10.18;;;12.40;99.90;;;;;;5038440;28;20069;-55
2022/05/24 02:48:19;;;;;;;18.05;11.82;;;12.40;99.90;;;;;;5058565;28;20093;-54
2022/05/24 02:50:45;;;;;;;14.68;11.35;;;12.40;99.90;;;;;;5059008;28;20044;-55
2022/05/24 02:53:11;;;;;;;15.48;11.18;;;12.40;99.90;;;;;;5058353;28;20097;-55
2022/05/24 02:55:37;;;;;;;18.88;12.02;;;12.50;99.90;;;;;;5052637;28;20049;-55
2022/05/24 02:58:03;;;;;;;20.25;12.57;;;12.50;99.90;;;;;;5048499;28;20057;-56
2022/05/24 03:00:29;;;;;;;17.67;13.07;;;12.50;99.90;;;;;;5058928;28;20116;-55
2022/05/24 03:02:55;;;;;;;16.20;12.43;;;12.50;99.90;;;;;;5058060;28;20053;-54
2022/05/24 03:05:21;;;;;;;18.50;11.63;;;12.50;99.90;;;;;;5058595;28;20047;-55
2022/05/24 03:10:32;;;;;;;19.55;14.60;;;12.60;99.90;;;;;;5057529;28;20045;-55
2022/05/24 03:15:44;;;;;;;18.90;13.18;;;12.60;99.90;;;;;;5057865;28;20102;-55
2022/05/24 03:18:11;;;;;;;19.48;13.20;;;12.60;99.90;;;;;;5046389;28;20045;-55
2022/05/24 03:20:37;;;;;;;18.25;13.20;;;12.60;99.90;;;;;;5058451;28;20046;-55
2022/05/24 03:23:03;;;;;;;19.08;14.45;;;12.60;99.90;;;;;;5039399;28;20041;-55
2022/05/24 03:25:31;;;;;;;20.67;13.48;;;12.60;99.90;;;;;;5038778;28;20049;-55
2022/05/24 03:27:57;;;;;;;20.50;15.35;;;12.60;99.90;;;;;;5047129;28;20501;-55
2022/05/24 03:30:22;;;;;;;20.90;14.98;;;12.70;99.90;;;;;;5038868;28;20041;-54
2022/05/24 03:32:49;;;;;;;22.83;15.63;;;12.60;99.90;;;;;;5037818;28;20056;-55
2022/05/24 03:35:15;;;;;;;23.25;15.05;;;12.60;99.90;;;;;;5038419;28;20052;-54
2022/05/24 03:37:41;;;;;;;24.45;16.13;;;12.70;99.90;;;;;;5056048;28;20513;-55
2022/05/24 03:40:09;;;;;;;23.95;17.00;;;12.60;99.90;;;;;;5057887;28;20049;-55
2022/05/24 03:42:35;;;;;;;22.38;16.10;;;12.60;99.90;;;;;;5058454;28;20041;-55
2022/05/24 03:45:02;;;;;;;25.20;16.73;;;12.70;99.90;;;;;;5056678;28;20061;-55
2022/05/24 03:47:28;;;;;;;24.00;15.82;;;12.70;99.90;;;;;;5038325;28;20057;-55
2022/05/24 03:49:53;;;;;;;27.33;17.88;;;12.60;99.90;;;;;;5042118;28;20101;-55
2022/05/24 03:52:19;;;;;;;24.33;18.02;;;12.70;99.90;;;;;;5039210;28;20076;-55
2022/05/24 03:54:45;;;;;;;27.55;18.65;;;12.70;99.90;;;;;;5039820;28;20052;-55
2022/05/24 03:59:55;;;;;;;30.27;20.15;;;12.80;99.90;;;;;;5045584;28;20044;-55
2022/05/24 04:02:21;;;;;;;32.33;21.02;;;12.80;99.90;;;;;;5036804;28;20061;-56
2022/05/24 04:04:47;;;;;;;32.60;21.10;;;13.00;99.90;;;;;;5039548;28;20543;-56
2022/05/24 04:07:12;;;;;;;32.33;21.52;;;12.90;99.90;;;;;;5060770;28;20064;-56
2022/05/24 04:09:38;;;;;;;26.58;18.55;;;13.00;99.90;;;;;;5061847;28;20037;-56
2022/05/24 04:12:05;;;;;;;30.38;22.48;;;12.90;99.90;;;;;;5050693;28;20083;-55
2022/05/24 04:14:32;;;;;;;30.45;22.08;;;12.90;99.90;;;;;;5041419;28;20508;-55
2022/05/24 04:16:57;;;;;;;32.65;21.55;;;13.00;99.90;;;;;;5042239;28;20053;-55
2022/05/24 04:19:23;;;;;;;29.15;20.65;;;13.00;99.90;;;;;;5042109;28;20052;-56
2022/05/24 04:21:49;;;;;;;33.58;23.05;;;13.00;99.90;;;;;;5050524;28;20037;-55
2022/05/24 04:24:14;;;;;;;27.27;19.35;;;13.20;99.90;;;;;;5061154;28;20053;-55
2022/05/24 04:26:41;;;;;;;29.10;20.98;;;13.10;99.90;;;;;;5061669;28;20056;-55
2022/05/24 04:29:07;;;;;;;28.60;19.95;;;13.10;99.90;;;;;;5061389;28;20044;-55
2022/05/24 04:31:32;;;;;;;27.90;19.40;;;13.10;99.90;;;;;;5044846;28;20179;-56
2022/05/24 04:33:58;;;;;;;27.33;18.23;;;13.10;99.90;;;;;;5041748;28;20041;-56
2022/05/24 04:36:24;;;;;;;26.13;17.95;;;13.10;99.90;;;;;;5040513;28;20050;-56
2022/05/24 04:38:49;;;;;;;22.40;15.73;;;13.10;99.90;;;;;;5041586;28;20037;-55
2022/05/24 04:43:59;;;;;;;21.55;14.50;;;13.10;99.90;;;;;;5041107;28;20517;-55
2022/05/24 04:46:25;;;;;;;21.65;14.68;;;13.10;99.90;;;;;;5041239;28;20045;-55
2022/05/24 04:48:51;;;;;;;21.30;13.57;;;13.10;99.90;;;;;;5040495;28;20060;-56
2022/05/24 04:51:16;;;;;;;20.38;14.18;;;13.20;99.90;;;;;;5046570;28;20406;-55
2022/05/24 04:53:43;;;;;;;18.85;12.85;;;13.10;99.90;;;;;;5049970;28;20060;-56
2022/05/24 04:56:08;;;;;;;19.13;12.38;;;13.10;99.90;;;;;;5061330;28;20055;-56
2022/05/24 04:58:34;;;;;;;18.73;11.68;;;13.10;99.90;;;;;;5050027;28;20076;-56
2022/05/24 05:01:00;;;;;;;18.98;12.38;;;13.10;99.90;;;;;;5051980;28;20037;-55
2022/05/24 05:03:25;;;;;;;18.63;12.43;;;13.20;99.90;;;;;;5050430;28;20452;-56
2022/05/24 05:05:52;;;;;;;17.95;10.10;;;13.30;99.90;;;;;;5060480;28;20041;-56
2022/05/24 05:08:18;;;;;;;17.92;10.25;;;13.30;99.90;;;;;;5061229;28;20047;-54
2022/05/24 05:10:44;;;;;;;18.90;10.43;;;13.30;99.90;;;;;;5046894;28;20118;-54
2022/05/24 05:13:10;;;;;;;15.95;10.05;;;13.30;99.90;;;;;;5060656;28;20556;-55
2022/05/24 05:15:37;;;;;;;20.17;10.45;;;13.30;99.90;;;;;;5059880;28;20080;-54
2022/05/24 05:18:14;;;;;;;14.77;9.48;;;13.30;99.90;;;;;;5059304;28;20052;-55
2022/05/24 05:20:41;;;;;;;16.90;9.65;;;13.40;99.90;;;;;;5060711;28;20044;-55
2022/05/24 05:23:12;;;;;;;19.95;9.70;;;13.50;99.90;;;;;;5041982;28;20437;-55
2022/05/24 05:25:41;;;;;;;15.95;10.10;;;13.50;99.90;;;;;;5037753;28;20034;-55
2022/05/24 05:28:07;;;;;;;16.58;10.02;;;13.40;99.90;;;;;;5038036;28;20041;-55
2022/05/24 05:33:18;;;;;;;17.98;10.50;;;13.60;99.90;;;;;;5056988;28;20060;-55
2022/05/24 05:35:45;;;;;;;17.85;10.80;;;13.50;99.90;;;;;;5043406;28;20041;-55
2022/05/24 05:38:11;;;;;;;19.45;11.82;;;13.60;99.90;;;;;;5043988;28;20057;-54
2022/05/24 05:40:37;;;;;;;18.40;12.13;;;13.50;99.90;;;;;;5053710;28;20052;-56
2022/05/24 05:43:03;;;;;;;19.13;12.70;;;13.60;99.90;;;;;;5051010;28;20060;-56
2022/05/24 05:45:29;;;;;;;20.10;14.30;;;13.50;99.90;;;;;;5056066;28;20537;-56
2022/05/24 05:47:55;;;;;;;23.20;13.60;;;13.50;99.90;;;;;;5045712;28;20052;-56
2022/05/24 05:50:20;;;;;;;20.83;13.57;;;13.50;99.90;;;;;;5031548;28;20052;-55
2022/05/24 05:52:47;;;;;;;19.48;13.07;;;13.40;99.90;;;;;;5045169;28;20050;-54
2022/05/24 05:55:13;;;;;;;23.38;15.10;;;13.40;99.90;;;;;;5042254;28;20055;-55
2022/05/24 05:57:39;;;;;;;22.55;14.43;;;13.50;99.90;;;;;;5037309;28;20056;-56
2022/05/24 06:00:08;;;;;;;18.70;13.02;;;13.60;99.90;;;;;;5056734;28;20053;-56
2022/05/24 06:02:35;;;;;;;21.65;14.32;;;13.50;99.90;;;;;;5055659;28;20078;-55
2022/05/24 06:05:00;;;;;;;22.08;14.63;;;13.50;99.90;;;;;;5056641;28;20596;-56
2022/05/24 06:07:26;;;;;;;25.17;16.55;;;13.50;99.90;;;;;;5038753;28;20550;-56
2022/05/24 06:09:52;;;;;;;32.03;18.40;;;13.50;99.90;;;;;;5055481;28;20117;-56
2022/05/24 06:12:18;;;;;;;27.83;16.90;;;13.50;99.90;;;;;;5056267;28;20055;-57
2022/05/24 06:14:44;;;;;;;26.58;15.77;;;13.50;99.90;;;;;;5055481;28;20084;-57
2022/05/24 06:17:10;;;;;;;24.77;16.90;;;13.50;99.90;;;;;;5056459;28;20048;-57
2022/05/24 06:19:37;;;;;;;29.77;18.30;;;13.40;99.90;;;;;;5054782;28;20469;-58
2022/05/24 06:22:03;;;;;;;30.27;18.83;;;13.50;99.90;;;;;;5042014;28;20042;-59
2022/05/24 06:24:29;;;;;;;29.08;18.83;;;13.50;99.90;;;;;;5043350;28;20076;-59
2022/05/24 06:26:56;;;;;;;25.73;17.88;;;13.50;99.90;;;;;;5037811;28;20068;-57
2022/05/24 06:29:22;;;;;;;30.60;20.02;;;13.50;99.90;;;;;;5055987;28;20049;-58
2022/05/24 06:31:48;;;;;;;28.17;19.02;;;13.60;99.90;;;;;;5055177;28;20056;-58
2022/05/24 06:34:14;;;;;;;32.17;19.73;;;13.40;99.90;;;;;;5056625;28;20491;-58
2022/05/24 06:36:40;;;;;;;23.33;14.57;;;13.50;99.90;;;;;;5054755;28;20045;-57
2022/05/24 06:39:05;;;;;;;25.10;15.82;;;13.40;99.90;;;;;;5052739;28;20051;-58
2022/05/24 06:41:31;;;;;;;24.23;14.40;;;13.30;99.90;;;;;;5039350;28;20079;-57
2022/05/24 06:43:57;;;;;;;25.80;15.52;;;13.40;99.90;;;;;;5055499;28;20109;-57
2022/05/24 06:46:23;;;;;;;18.42;13.73;;;13.50;99.90;;;;;;5055822;28;20077;-57
2022/05/24 06:48:50;;;;;;;19.25;13.52;;;13.50;99.90;;;;;;5037701;28;20056;-57
2022/05/24 06:51:20;;;;;;;18.10;11.90;;;13.70;99.90;;;;;;5041001;28;20861;-56
2022/05/24 06:53:48;;;;;;;18.77;12.02;;;13.70;99.90;;;;;;5054633;28;20060;-57
2022/05/24 06:56:14;;;;;;;19.90;12.52;;;13.70;99.90;;;;;;5052375;28;20048;-56
2022/05/24 06:58:40;;;;;;;18.13;12.50;;;13.70;99.90;;;;;;5054842;28;20071;-56
2022/05/24 07:03:52;;;;;;;19.92;10.95;;;13.80;99.90;;;;;;5055738;28;20059;-55
2022/05/24 07:06:18;;;;;;;18.83;11.23;;;13.80;99.90;;;;;;5054511;28;20049;-56
2022/05/24 07:08:45;;;;;;;17.08;9.85;;;13.90;99.90;;;;;;5055548;28;20048;-55
2022/05/24 07:11:12;;;;;;;18.80;11.70;;;14.00;99.90;;;;;;5050272;28;20041;-56
2022/05/24 07:13:39;;;;;;;16.55;9.30;;;14.00;99.90;;;;;;5030098;28;20045;-55
2022/05/24 07:16:06;;;;;;;18.30;9.68;;;13.90;99.90;;;;;;5051157;28;20045;-55
2022/05/24 07:18:33;;;;;;;15.73;9.38;;;13.90;99.90;;;;;;5054487;28;20056;-56
2022/05/24 07:20:58;;;;;;;15.55;9.10;;;13.90;99.90;;;;;;5055445;28;20049;-55
2022/05/24 07:23:24;;;;;;;16.52;8.70;;;13.90;99.90;;;;;;5045982;28;20081;-55
2022/05/24 07:25:51;;;;;;;14.43;8.93;;;14.00;99.90;;;;;;5045550;28;20051;-56
2022/05/24 07:28:17;;;;;;;15.63;8.07;;;13.90;99.90;;;;;;5044371;28;20049;-55
2022/05/24 07:30:45;;;;;;;18.27;7.15;;;13.90;99.90;;;;;;5035184;28;20045;-55
2022/05/24 07:33:12;;;;;;;12.27;6.22;;;13.90;99.90;;;;;;5034799;28;20562;-55
2022/05/24 07:35:39;;;;;;;15.70;7.20;;;13.80;99.90;;;;;;5034474;28;20041;-56
2022/05/24 07:38:09;;;;;;;11.57;5.60;;;14.00;99.90;;;;;;5047112;28;20137;-55
2022/05/24 07:46:13;;;;;;;13.52;6.45;;;14.00;99.90;;;;;;5034038;28;20076;-56
2022/05/24 07:48:39;;;;;;;12.95;7.18;;;13.90;99.90;;;;;;5033462;28;20517;-56
2022/05/24 07:51:06;;;;;;;13.73;6.88;;;13.90;99.90;;;;;;5035043;28;20505;-55
2022/05/24 07:53:33;;;;;;;12.20;7.10;;;13.90;99.90;;;;;;5040499;28;20386;-56
2022/05/24 07:55:59;;;;;;;13.60;7.38;;;14.00;99.90;;;;;;5046674;28;20040;-56
2022/05/24 07:58:26;;;;;;;15.25;7.57;;;13.90;99.90;;;;;;5051961;28;20067;-55
2022/05/24 08:00:54;;;;;;;16.42;7.13;;;13.80;99.90;;;;;;5052908;28;20053;-55
2022/05/24 08:03:20;;;;;;;13.70;7.00;;;13.80;99.90;;;;;;5047230;28;20049;-54
2022/05/24 08:05:46;;;;;;;11.02;7.22;;;13.70;99.90;;;;;;5053541;28;20538;-56
2022/05/24 08:08:14;;;;;;;13.70;6.97;;;13.70;99.90;;;;;;5053591;28;20041;-56
2022/05/24 08:10:40;;;;;;;12.60;6.40;;;13.80;99.90;;;;;;5050619;28;20136;-56
2022/05/24 08:13:10;;;;;;;10.68;5.93;;;13.80;99.90;;;;;;5053451;28;20715;-55
2022/05/24 08:15:36;;;;;;;12.55;7.05;;;13.90;99.90;;;;;;5053512;28;20040;-56
2022/05/24 08:18:01;;;;;;;12.07;6.53;;;14.00;99.90;;;;;;5053700;28;20053;-56
2022/05/24 08:20:29;;;;;;;11.70;6.45;;;14.00;99.90;;;;;;5054545;28;20053;-55
2022/05/24 08:22:56;;;;;;;14.75;6.93;;;14.10;99.90;;;;;;5053654;28;20049;-54
2022/05/24 08:25:22;;;;;;;12.60;6.25;;;14.10;99.90;;;;;;5054455;28;20475;-56
2022/05/24 08:27:48;;;;;;;13.73;7.65;;;14.10;99.90;;;;;;5034547;28;20061;-55
2022/05/24 08:30:16;;;;;;;13.82;7.03;;;14.20;99.90;;;;;;5037893;28;20482;-56
2022/05/24 08:32:42;;;;;;;10.75;7.60;;;14.20;99.90;;;;;;5032524;28;20550;-56
2022/05/24 08:35:11;;;;;;;11.32;7.32;;;14.30;99.90;;;;;;5035311;28;20200;-55
2022/05/24 08:37:38;;;;;;;10.93;6.80;;;14.30;99.90;;;;;;5038755;28;20054;-56
2022/05/24 08:40:05;;;;;;;12.02;7.20;;;14.30;99.90;;;;;;5037786;28;20529;-56
2022/05/24 08:42:49;;;;;;;13.68;7.28;;;14.30;99.90;;;;;;5039799;28;20041;-56
2022/05/24 08:48:25;;;;;;;12.73;6.85;;;14.50;99.90;;;;;;5035264;28;20048;-56
2022/05/24 08:51:22;;;;;;;15.70;8.05;;;14.60;99.90;;;;;;5054782;28;20067;-55
2022/05/24 08:53:51;;;;;;;15.63;8.38;;;14.60;99.90;;;;;;5056111;28;20053;-55
2022/05/24 08:56:28;;;;;;;13.73;8.63;;;14.70;99.90;;;;;;5055588;28;20056;-56
2022/05/24 08:59:06;;;;;;;15.25;8.43;;;14.70;99.90;;;;;;5051650;28;20095;-56
2022/05/24 09:01:32;;;;;;;14.95;8.80;;;14.60;99.90;;;;;;5057404;28;20088;-56
2022/05/24 09:04:06;;;;;;;15.15;9.38;;;14.50;99.90;;;;;;5039961;28;20683;-56
2022/05/24 09:06:44;;;;;;;16.55;7.57;;;14.30;99.90;;;;;;5049618;28;20048;-62
2022/05/24 09:09:15;;;;;;;9.38;4.07;;;13.70;99.90;;;;;;5019596;28;20513;-62
2022/05/24 09:11:56;;;;;;;9.20;3.28;;;13.10;99.90;;;;;;5049440;28;20057;-61
2022/05/24 09:14:30;;;;;;;7.30;2.83;;;12.50;99.90;;;;;;5045237;28;20053;-61
2022/05/24 09:17:12;;;;;;;8.30;3.67;;;12.50;99.90;;;;;;5053349;28;20055;-59
2022/05/24 09:19:42;;;;;;;8.25;2.85;;;12.40;99.90;;;;;;5057750;28;20085;-60
2022/05/24 09:22:11;;;;;;;5.82;2.22;;;12.30;99.90;;;;;;5060625;28;20586;-59
2022/05/24 09:24:52;;;;;;;6.38;2.50;;;12.40;99.90;;;;;;5060310;28;20053;-55
2022/05/24 09:27:23;;;;;;;7.32;2.63;;;12.50;99.90;;;;;;5058996;28;20048;-58
2022/05/24 09:29:57;;;;;;;7.30;2.83;;;12.70;99.90;;;;;;5045826;28;20049;-58
2022/05/24 09:32:39;;;;;;;8.35;2.88;;;12.90;99.90;;;;;;5051529;28;20060;-57
2022/05/24 09:35:19;;;;;;;7.70;3.20;;;13.10;99.90;;;;;;5052630;28;20029;-57
2022/05/24 09:38:04;;;;;;;6.45;2.30;;;13.30;99.90;;;;;;5053123;28;20052;-57
2022/05/24 09:40:52;;;;;;;5.90;1.98;;;13.20;99.90;;;;;;5038669;28;20075;-58
2022/05/24 09:43:29;;;;;;;6.45;2.67;;;13.30;99.90;;;;;;5012481;28;20053;-57
2022/05/24 09:45:57;;;;;;;8.38;3.60;;;13.60;99.90;;;;;;5040140;28;20033;-56
2022/05/24 09:48:27;;;;;;;6.57;3.20;;;13.60;99.90;;;;;;5039791;28;20508;-56
2022/05/24 09:50:55;;;;;;;9.07;3.97;;;13.50;99.90;;;;;;5060468;28;20048;-56
2022/05/24 09:53:26;;;;;;;8.02;4.63;;;13.70;99.90;;;;;;5058950;28;20048;-57
2022/05/24 09:55:52;;;;;;;9.77;4.50;;;13.70;99.90;;;;;;5060270;28;20041;-55
2022/05/24 09:58:32;;;;;;;9.38;4.72;;;13.70;99.90;;;;;;5058822;28;20318;-56
2022/05/24 10:01:13;;;;;;;8.07;4.28;;;13.90;99.90;;;;;;5049418;28;20164;-56
2022/05/24 10:03:42;;;;;;;7.68;4.20;;;14.00;99.90;;;;;;5046473;28;20049;-55
2022/05/24 10:06:30;;;;;;;10.20;4.05;;;14.50;99.90;;;;;;5052363;28;20056;-56
2022/05/24 10:08:58;;;;;;;11.75;4.53;;;14.60;99.90;;;;;;5039668;28;20529;-55
2022/05/24 10:11:45;;;;;;;8.95;3.97;;;14.40;99.90;;;;;;5049849;28;20076;-55
2022/05/24 10:14:26;;;;;;;8.80;4.28;;;14.20;99.90;;;;;;5040921;28;20055;-56
2022/05/24 10:17:24;;;;;;;8.70;3.92;;;14.30;99.90;;;;;;5059487;28;20048;-56
2022/05/24 10:20:08;;;;;;;6.00;3.50;;;14.20;99.90;;;;;;5035437;28;20056;-56
2022/05/24 10:22:48;;;;;;;7.75;4.03;;;14.00;99.90;;;;;;5058717;28;20072;-55
2022/05/24 10:25:23;;;;;;;8.50;4.40;;;13.90;99.90;;;;;;5059696;28;20041;-54
2022/05/24 10:28:07;;;;;;;9.00;4.35;;;14.00;99.90;;;;;;5042047;28;20386;-54
2022/05/24 10:30:54;;;;;;;7.97;4.18;;;14.00;99.90;;;;;;5039414;28;20044;-54
2022/05/24 10:40:01;;;;;;;8.90;4.80;;;13.60;99.90;;;;;;5038742;28;20598;-58
2022/05/24 10:42:45;;;;;;;8.57;5.18;;;13.50;99.90;;;;;;5046755;28;20162;-57
2022/05/24 10:45:50;;;;;;;8.05;4.00;;;13.50;99.90;;;;;;5037699;28;20540;-57
2022/05/24 10:48:32;;;;;;;5.50;2.40;;;13.80;99.90;;;;;;5038283;28;20049;-57
2022/05/24 10:51:08;;;;;;;5.55;2.90;;;14.20;99.90;;;;;;5043866;28;20041;-57
2022/05/24 10:53:54;;;;;;;7.18;3.00;;;14.20;99.90;;;;;;5057041;28;20483;-57
2022/05/24 10:56:29;;;;;;;6.85;3.17;;;14.20;99.90;;;;;;5058694;28;20132;-56
2022/05/24 10:59:07;;;;;;;5.57;3.30;;;14.00;99.90;;;;;;5058348;28;20056;-56
2022/05/24 11:01:50;;;;;;;9.68;4.22;;;14.00;99.90;;;;;;5057985;28;20128;-56
2022/05/24 11:04:25;;;;;;;8.38;3.97;;;13.80;99.90;;;;;;5049610;28;20080;-56
2022/05/24 11:07:10;;;;;;;10.65;4.85;;;13.90;99.90;;;;;;5052755;28;20046;-56
2022/05/24 11:09:42;;;;;;;7.57;4.45;;;14.10;99.90;;;;;;5038413;28;20440;-56
2022/05/24 11:12:15;;;;;;;8.93;4.60;;;14.20;99.90;;;;;;5047815;28;20879;-56
2022/05/24 11:14:47;;;;;;;7.65;4.60;;;14.30;99.90;;;;;;5049115;28;20041;-56
2022/05/24 11:17:14;;;;;;;10.23;4.40;;;14.20;99.90;;;;;;5038766;28;20053;-56
2022/05/24 11:19:45;;;;;;;12.10;4.47;;;14.00;99.90;;;;;;5051572;28;20049;-57
2022/05/24 11:22:17;;;;;;;10.93;5.33;;;13.00;99.90;;;;;;5058098;28;20124;-61
2022/05/24 11:25:05;;;;;;;8.73;5.32;;;12.30;99.90;;;;;;5058504;28;20041;-60
2022/05/24 11:27:35;;;;;;;9.73;4.88;;;12.00;99.90;;;;;;5057383;28;20045;-58
2022/05/24 11:30:08;;;;;;;12.38;5.57;;;12.10;99.90;;;;;;5058519;28;20048;-60
2022/05/24 11:33:15;;;;;;;7.10;3.85;;;12.30;99.90;;;;;;5056879;28;20048;-55
2022/05/24 11:35:52;;;;;;;9.60;4.78;;;12.60;99.90;;;;;;5027325;28;20059;-57
2022/05/24 11:38:23;;;;;;;7.28;4.05;;;13.10;99.90;;;;;;5046932;28;20057;-57
2022/05/24 11:40:55;;;;;;;6.68;3.60;;;13.50;99.90;;;;;;5048707;28;20045;-57
2022/05/24 11:43:36;;;;;;;7.80;3.45;;;13.60;99.90;;;;;;5032227;28;20168;-57
2022/05/24 11:46:06;;;;;;;5.38;3.20;;;13.70;99.90;;;;;;5048092;28;20072;-57
2022/05/24 11:48:51;;;;;;;6.35;3.15;;;13.70;99.90;;;;;;5031243;28;20062;-55
2022/05/24 11:51:37;;;;;;;6.97;2.72;;;13.90;99.90;;;;;;5049910;28;20037;-55
2022/05/24 11:54:07;;;;;;;8.43;2.70;;;13.70;99.90;;;;;;5048981;28;20052;-56
2022/05/24 11:56:33;;;;;;;5.93;2.00;;;13.50;99.90;;;;;;5049675;28;20675;-55
2022/05/24 11:59:05;;;;;;;7.22;2.30;;;13.20;99.90;;;;;;5032116;28;20049;-55
2022/05/24 12:01:35;;;;;;;7.47;2.75;;;13.10;99.90;;;;;;5049581;28;20040;-56
2022/05/24 12:10:23;;;;;;;7.25;2.80;;;13.60;99.90;;;;;;5031530;28;20083;-55
2022/05/24 12:12:53;;;;;;;10.32;2.83;;;14.10;99.90;;;;;;5041662;28;20049;-55
2022/05/24 12:15:47;;;;;;;6.63;2.63;;;13.90;99.90;;;;;;5047952;28;20092;-56
2022/05/24 12:18:24;;;;;;;8.20;2.83;;;14.10;99.90;;;;;;5045776;28;20065;-55
2022/05/24 12:20:49;;;;;;;6.85;2.35;;;14.40;99.90;;;;;;5050468;28;21590;-55
2022/05/24 12:23:34;;;;;;;7.60;2.78;;;14.40;99.90;;;;;;5049260;28;20537;-55
2022/05/24 12:26:08;;;;;;;5.47;1.80;;;14.40;99.90;;;;;;5049951;28;20072;-54
2022/05/24 12:28:34;;;;;;;7.88;1.95;;;14.00;99.90;;;;;;5053037;28;20053;-53
2022/05/24 12:31:10;;;;;;;7.40;2.63;;;13.80;99.90;;;;;;5053341;28;20049;-56
2022/05/24 12:33:56;;;;;;;7.72;2.20;;;13.80;99.90;;;;;;5053810;28;20287;-56
2022/05/24 12:36:28;;;;;;;6.18;1.75;;;13.70;99.90;;;;;;5052164;28;20100;-56
2022/05/24 12:39:18;;;;;;;7.05;2.35;;;13.70;99.90;;;;;;5053717;28;20037;-55
2022/05/24 12:41:46;;;;;;;7.82;1.80;;;14.20;99.90;;;;;;5043266;28;20749;-55
2022/05/24 12:44:20;;;;;;;6.13;1.55;;;14.50;99.90;;;;;;5053267;28;20063;-55
2022/05/24 12:46:51;;;;;;;4.53;1.70;;;14.40;99.90;;;;;;5053360;28;20056;-55
2022/05/24 12:49:20;;;;;;;5.38;1.67;;;14.20;99.90;;;;;;5052396;28;20041;-54
2022/05/24 12:51:46;;;;;;;7.15;1.95;;;14.30;99.90;;;;;;5053729;28;20036;-54
2022/05/24 12:54:16;;;;;;;12.80;2.88;;;14.60;99.90;;;;;;5053160;28;20047;-53
2022/05/24 12:56:53;;;;;;;11.15;2.20;;;14.90;99.90;;;;;;5053177;28;20215;-54
2022/05/24 12:59:28;;;;;;;6.10;1.77;;;15.40;99.90;;;;;;5053463;28;20053;-54
2022/05/24 13:01:54;;;;;;;4.75;1.67;;;14.90;99.90;;;;;;5052174;28;20501;-54
2022/05/24 13:04:27;;;;;;;4.95;1.35;;;14.70;99.90;;;;;;5053710;28;20044;-55
2022/05/24 13:06:53;;;;;;;5.15;1.20;;;14.70;99.90;;;;;;5050834;28;20075;-53
2022/05/24 13:09:43;;;;;;;4.03;1.13;;;14.90;99.90;;;;;;5053089;28;20045;-55
2022/05/24 13:12:11;;;;;;;5.88;1.40;;;15.60;99.90;;;;;;5053276;28;20045;-54
2022/05/24 13:14:42;;;;;;;10.88;2.00;;;15.40;99.90;;;;;;5051843;28;21174;-55
2022/05/24 13:17:09;;;;;;;4.93;1.03;;;15.80;99.90;;;;;;5051953;28;20052;-54
2022/05/24 13:20:06;;;;;;;4.55;1.45;;;15.60;99.90;;;;;;5051821;28;20822;-54
2022/05/24 13:22:52;;;;;;;4.47;1.30;;;16.00;99.90;;;;;;5033772;28;20060;-55
2022/05/24 13:25:40;;;;;;;5.82;1.45;;;16.10;99.90;;;;;;5052754;28;20504;-55
2022/05/24 13:28:05;;;;;;;4.50;1.33;;;16.00;99.90;;;;;;5051157;28;20072;-54
2022/05/24 13:33:34;;;;;;;8.05;1.63;;;15.60;99.90;;;;;;5052645;28;20229;-53
2022/05/24 13:36:19;;;;;;;6.50;1.45;;;15.70;99.90;;;;;;5051853;28;20032;-55
2022/05/24 13:39:05;;;;;;;4.40;1.50;;;15.60;99.90;;;;;;5051731;28;20036;-54
2022/05/24 13:41:35;;;;;;;7.47;1.70;;;15.30;99.90;;;;;;5051667;28;20628;-53
2022/05/24 13:44:28;;;;;;;6.78;1.65;;;15.30;99.90;;;;;;5058687;28;20041;-54